sensor_id;sensor_type;location;lat;lon;timestamp;P1;durP1;ratioP1;P2;durP2;ratioP2
38853;SDS011;24606;51.992;4.198;2023-11-19T00:01:03;75.45;;;9.98;;
38853;SDS011;24606;51.992;4.198;2023-11-19T00:06:07;76.50;;;9.30;;
38853;SDS011;24606;51.992;4.198;2023-11-19T00:11:11;50.53;;;6.75;;
38853;SDS011;24606;51.992;4.198;2023-11-19T00:16:15;72.15;;;7.80;;
38853;SDS011;24606;51.992;4.198;2023-11-19T00:21:19;42.73;;;5.77;;
38853;SDS011;24606;51.992;4.198;2023-11-19T00:26:22;77.45;;;8.40;;
38853;SDS011;24606;51.992;4.198;2023-11-19T00:31:23;58.33;;;8.52;;
38853;SDS011;24606;51.992;4.198;2023-11-19T00:36:29;34.78;;;5.63;;
38853;SDS011;24606;51.992;4.198;2023-11-19T00:41:31;80.45;;;10.00;;
38853;SDS011;24606;51.992;4.198;2023-11-19T00:46:32;74.10;;;9.07;;
38853;SDS011;24606;51.992;4.198;2023-11-19T00:51:35;91.43;;;11.98;;
38853;SDS011;24606;51.992;4.198;2023-11-19T00:56:37;70.15;;;9.38;;
38853;SDS011;24606;51.992;4.198;2023-11-19T01:01:40;66.77;;;8.33;;
38853;SDS011;24606;51.992;4.198;2023-11-19T01:06:43;59.15;;;9.40;;
38853;SDS011;24606;51.992;4.198;2023-11-19T01:11:45;56.40;;;7.47;;
38853;SDS011;24606;51.992;4.198;2023-11-19T01:16:46;75.80;;;9.93;;
38853;SDS011;24606;51.992;4.198;2023-11-19T01:21:50;58.53;;;7.80;;
38853;SDS011;24606;51.992;4.198;2023-11-19T01:26:52;73.90;;;11.20;;
38853;SDS011;24606;51.992;4.198;2023-11-19T01:31:54;61.47;;;6.78;;
38853;SDS011;24606;51.992;4.198;2023-11-19T01:36:57;58.63;;;8.10;;
38853;SDS011;24606;51.992;4.198;2023-11-19T01:41:59;76.22;;;10.00;;
38853;SDS011;24606;51.992;4.198;2023-11-19T01:47:00;58.25;;;9.10;;
38853;SDS011;24606;51.992;4.198;2023-11-19T01:52:05;48.38;;;6.97;;
38853;SDS011;24606;51.992;4.198;2023-11-19T01:57:08;64.25;;;9.68;;
38853;SDS011;24606;51.992;4.198;2023-11-19T02:02:10;71.90;;;12.37;;
38853;SDS011;24606;51.992;4.198;2023-11-19T02:07:14;59.03;;;7.68;;
38853;SDS011;24606;51.992;4.198;2023-11-19T02:12:17;54.92;;;7.72;;
38853;SDS011;24606;51.992;4.198;2023-11-19T02:22:31;50.67;;;7.20;;
38853;SDS011;24606;51.992;4.198;2023-11-19T02:27:44;66.35;;;8.43;;
38853;SDS011;24606;51.992;4.198;2023-11-19T02:32:49;63.05;;;7.53;;
38853;SDS011;24606;51.992;4.198;2023-11-19T02:37:51;77.88;;;9.05;;
38853;SDS011;24606;51.992;4.198;2023-11-19T02:42:54;50.83;;;7.05;;
38853;SDS011;24606;51.992;4.198;2023-11-19T02:47:57;85.15;;;10.32;;
38853;SDS011;24606;51.992;4.198;2023-11-19T02:53:01;76.70;;;10.00;;
38853;SDS011;24606;51.992;4.198;2023-11-19T02:58:06;67.90;;;9.48;;
38853;SDS011;24606;51.992;4.198;2023-11-19T03:03:19;73.60;;;8.50;;
38853;SDS011;24606;51.992;4.198;2023-11-19T03:08:22;70.18;;;8.18;;
38853;SDS011;24606;51.992;4.198;2023-11-19T03:13:26;70.17;;;9.03;;
38853;SDS011;24606;51.992;4.198;2023-11-19T03:18:28;67.82;;;8.43;;
38853;SDS011;24606;51.992;4.198;2023-11-19T03:23:29;64.25;;;9.95;;
38853;SDS011;24606;51.992;4.198;2023-11-19T03:28:32;67.47;;;8.80;;
38853;SDS011;24606;51.992;4.198;2023-11-19T03:33:34;68.13;;;7.78;;
38853;SDS011;24606;51.992;4.198;2023-11-19T03:38:37;83.85;;;11.02;;
38853;SDS011;24606;51.992;4.198;2023-11-19T03:43:43;81.05;;;10.88;;
38853;SDS011;24606;51.992;4.198;2023-11-19T03:53:47;68.95;;;11.10;;
38853;SDS011;24606;51.992;4.198;2023-11-19T04:15:31;63.30;;;8.40;;
38853;SDS011;24606;51.992;4.198;2023-11-19T04:20:33;52.95;;;6.18;;
38853;SDS011;24606;51.992;4.198;2023-11-19T04:25:35;49.93;;;6.23;;
38853;SDS011;24606;51.992;4.198;2023-11-19T04:30:38;40.10;;;5.72;;
38853;SDS011;24606;51.992;4.198;2023-11-19T04:35:40;53.63;;;6.55;;
38853;SDS011;24606;51.992;4.198;2023-11-19T04:40:42;52.33;;;7.40;;
38853;SDS011;24606;51.992;4.198;2023-11-19T04:45:45;58.72;;;8.75;;
38853;SDS011;24606;51.992;4.198;2023-11-19T04:50:47;45.35;;;6.47;;
38853;SDS011;24606;51.992;4.198;2023-11-19T04:55:51;39.33;;;6.30;;
38853;SDS011;24606;51.992;4.198;2023-11-19T05:00:54;55.10;;;7.55;;
38853;SDS011;24606;51.992;4.198;2023-11-19T05:05:56;62.97;;;8.18;;
38853;SDS011;24606;51.992;4.198;2023-11-19T05:10:58;59.72;;;9.05;;
38853;SDS011;24606;51.992;4.198;2023-11-19T05:16:01;52.63;;;8.20;;
38853;SDS011;24606;51.992;4.198;2023-11-19T05:21:03;41.35;;;5.78;;
38853;SDS011;24606;51.992;4.198;2023-11-19T05:26:05;55.40;;;7.23;;
38853;SDS011;24606;51.992;4.198;2023-11-19T05:31:09;55.50;;;7.07;;
38853;SDS011;24606;51.992;4.198;2023-11-19T05:36:11;45.55;;;6.60;;
38853;SDS011;24606;51.992;4.198;2023-11-19T05:41:13;44.40;;;7.65;;
38853;SDS011;24606;51.992;4.198;2023-11-19T05:46:16;41.72;;;6.00;;
38853;SDS011;24606;51.992;4.198;2023-11-19T05:51:18;48.75;;;8.25;;
38853;SDS011;24606;51.992;4.198;2023-11-19T05:56:20;57.00;;;7.72;;
38853;SDS011;24606;51.992;4.198;2023-11-19T06:01:24;40.17;;;6.60;;
38853;SDS011;24606;51.992;4.198;2023-11-19T06:06:26;57.40;;;7.82;;
38853;SDS011;24606;51.992;4.198;2023-11-19T06:11:29;60.58;;;8.52;;
38853;SDS011;24606;51.992;4.198;2023-11-19T06:16:32;62.55;;;7.45;;
38853;SDS011;24606;51.992;4.198;2023-11-19T06:21:34;58.50;;;10.07;;
38853;SDS011;24606;51.992;4.198;2023-11-19T06:26:37;46.40;;;8.02;;
38853;SDS011;24606;51.992;4.198;2023-11-19T06:31:41;70.67;;;9.97;;
38853;SDS011;24606;51.992;4.198;2023-11-19T06:36:43;66.28;;;8.80;;
38853;SDS011;24606;51.992;4.198;2023-11-19T06:41:45;45.20;;;9.35;;
38853;SDS011;24606;51.992;4.198;2023-11-19T06:46:49;64.90;;;9.43;;
38853;SDS011;24606;51.992;4.198;2023-11-19T06:51:51;49.75;;;7.75;;
38853;SDS011;24606;51.992;4.198;2023-11-19T06:56:53;55.00;;;8.10;;
38853;SDS011;24606;51.992;4.198;2023-11-19T07:01:56;46.83;;;7.20;;
38853;SDS011;24606;51.992;4.198;2023-11-19T07:06:58;57.40;;;8.23;;
38853;SDS011;24606;51.992;4.198;2023-11-19T07:11:59;55.40;;;7.90;;
38853;SDS011;24606;51.992;4.198;2023-11-19T07:17:06;49.47;;;6.82;;
38853;SDS011;24606;51.992;4.198;2023-11-19T07:22:09;52.42;;;8.23;;
38853;SDS011;24606;51.992;4.198;2023-11-19T07:27:11;48.15;;;6.93;;
38853;SDS011;24606;51.992;4.198;2023-11-19T07:32:15;55.40;;;6.32;;
38853;SDS011;24606;51.992;4.198;2023-11-19T07:37:17;66.25;;;7.85;;
38853;SDS011;24606;51.992;4.198;2023-11-19T07:42:18;55.50;;;8.95;;
38853;SDS011;24606;51.992;4.198;2023-11-19T07:47:21;58.42;;;6.80;;
38853;SDS011;24606;51.992;4.198;2023-11-19T07:52:23;44.03;;;6.10;;
38853;SDS011;24606;51.992;4.198;2023-11-19T07:57:25;51.70;;;7.80;;
38853;SDS011;24606;51.992;4.198;2023-11-19T08:02:31;67.93;;;8.63;;
38853;SDS011;24606;51.992;4.198;2023-11-19T08:07:33;54.72;;;8.55;;
38853;SDS011;24606;51.992;4.198;2023-11-19T08:12:35;48.20;;;6.07;;
38853;SDS011;24606;51.992;4.198;2023-11-19T08:17:38;57.30;;;7.85;;
38853;SDS011;24606;51.992;4.198;2023-11-19T08:22:40;46.47;;;6.82;;
38853;SDS011;24606;51.992;4.198;2023-11-19T08:27:42;50.55;;;6.93;;
38853;SDS011;24606;51.992;4.198;2023-11-19T08:32:45;35.60;;;5.75;;
38853;SDS011;24606;51.992;4.198;2023-11-19T08:37:47;65.50;;;9.10;;
38853;SDS011;24606;51.992;4.198;2023-11-19T08:42:48;57.97;;;6.78;;
38853;SDS011;24606;51.992;4.198;2023-11-19T08:47:52;55.58;;;9.32;;
38853;SDS011;24606;51.992;4.198;2023-11-19T08:52:53;53.38;;;7.60;;
38853;SDS011;24606;51.992;4.198;2023-11-19T08:57:56;48.25;;;6.18;;
38853;SDS011;24606;51.992;4.198;2023-11-19T09:02:59;47.40;;;5.55;;
38853;SDS011;24606;51.992;4.198;2023-11-19T09:08:01;62.13;;;8.65;;
38853;SDS011;24606;51.992;4.198;2023-11-19T09:13:04;49.42;;;9.48;;
38853;SDS011;24606;51.992;4.198;2023-11-19T09:18:07;40.83;;;6.85;;
38853;SDS011;24606;51.992;4.198;2023-11-19T09:23:09;34.08;;;5.38;;
38853;SDS011;24606;51.992;4.198;2023-11-19T09:28:12;47.45;;;7.20;;
38853;SDS011;24606;51.992;4.198;2023-11-19T09:33:15;52.43;;;7.07;;
38853;SDS011;24606;51.992;4.198;2023-11-19T09:38:17;49.78;;;7.57;;
38853;SDS011;24606;51.992;4.198;2023-11-19T09:43:19;50.13;;;7.38;;
38853;SDS011;24606;51.992;4.198;2023-11-19T09:48:22;38.05;;;4.78;;
38853;SDS011;24606;51.992;4.198;2023-11-19T09:53:26;32.72;;;5.95;;
38853;SDS011;24606;51.992;4.198;2023-11-19T09:58:28;37.50;;;5.43;;
38853;SDS011;24606;51.992;4.198;2023-11-19T10:03:33;57.30;;;7.18;;
38853;SDS011;24606;51.992;4.198;2023-11-19T10:08:38;47.70;;;6.93;;
38853;SDS011;24606;51.992;4.198;2023-11-19T10:13:40;36.75;;;5.13;;
38853;SDS011;24606;51.992;4.198;2023-11-19T10:18:44;47.77;;;6.77;;
38853;SDS011;24606;51.992;4.198;2023-11-19T10:23:50;46.58;;;6.20;;
38853;SDS011;24606;51.992;4.198;2023-11-19T10:28:52;54.10;;;7.93;;
38853;SDS011;24606;51.992;4.198;2023-11-19T10:33:56;40.85;;;5.80;;
38853;SDS011;24606;51.992;4.198;2023-11-19T10:38:57;32.22;;;6.13;;
38853;SDS011;24606;51.992;4.198;2023-11-19T10:43:59;21.52;;;4.80;;
38853;SDS011;24606;51.992;4.198;2023-11-19T10:49:02;43.30;;;6.30;;
38853;SDS011;24606;51.992;4.198;2023-11-19T10:54:05;48.20;;;6.68;;
38853;SDS011;24606;51.992;4.198;2023-11-19T10:59:07;52.28;;;8.48;;
38853;SDS011;24606;51.992;4.198;2023-11-19T11:04:13;62.92;;;9.25;;
38853;SDS011;24606;51.992;4.198;2023-11-19T11:09:16;66.20;;;8.60;;
38853;SDS011;24606;51.992;4.198;2023-11-19T11:14:18;49.83;;;7.22;;
38853;SDS011;24606;51.992;4.198;2023-11-19T11:19:26;70.75;;;8.93;;
38853;SDS011;24606;51.992;4.198;2023-11-19T11:30:10;51.75;;;8.55;;
38853;SDS011;24606;51.992;4.198;2023-11-19T11:35:30;49.70;;;7.20;;
38853;SDS011;24606;51.992;4.198;2023-11-19T11:40:38;42.80;;;6.75;;
38853;SDS011;24606;51.992;4.198;2023-11-19T11:45:40;37.63;;;5.63;;
38853;SDS011;24606;51.992;4.198;2023-11-19T11:50:48;39.22;;;5.38;;
38853;SDS011;24606;51.992;4.198;2023-11-19T11:55:52;29.42;;;5.13;;
38853;SDS011;24606;51.992;4.198;2023-11-19T12:00:59;37.60;;;6.68;;
38853;SDS011;24606;51.992;4.198;2023-11-19T12:06:04;40.35;;;5.28;;
38853;SDS011;24606;51.992;4.198;2023-11-19T12:11:08;55.45;;;7.03;;
38853;SDS011;24606;51.992;4.198;2023-11-19T12:16:10;49.85;;;6.80;;
38853;SDS011;24606;51.992;4.198;2023-11-19T12:21:17;35.63;;;5.22;;
38853;SDS011;24606;51.992;4.198;2023-11-19T12:26:39;52.35;;;7.72;;
38853;SDS011;24606;51.992;4.198;2023-11-19T12:31:43;58.03;;;8.77;;
38853;SDS011;24606;51.992;4.198;2023-11-19T12:36:47;59.97;;;8.02;;
38853;SDS011;24606;51.992;4.198;2023-11-19T12:41:52;42.50;;;7.90;;
38853;SDS011;24606;51.992;4.198;2023-11-19T12:47:01;56.95;;;10.40;;
38853;SDS011;24606;51.992;4.198;2023-11-19T12:52:12;65.68;;;8.80;;
38853;SDS011;24606;51.992;4.198;2023-11-19T12:57:14;50.97;;;6.82;;
38853;SDS011;24606;51.992;4.198;2023-11-19T13:02:16;57.67;;;7.23;;
38853;SDS011;24606;51.992;4.198;2023-11-19T13:07:21;55.60;;;7.43;;
38853;SDS011;24606;51.992;4.198;2023-11-19T13:12:23;72.82;;;10.13;;
38853;SDS011;24606;51.992;4.198;2023-11-19T13:17:25;78.80;;;10.45;;
38853;SDS011;24606;51.992;4.198;2023-11-19T13:22:29;58.10;;;8.43;;
38853;SDS011;24606;51.992;4.198;2023-11-19T13:27:30;71.18;;;10.75;;
38853;SDS011;24606;51.992;4.198;2023-11-19T13:32:33;50.17;;;8.02;;
38853;SDS011;24606;51.992;4.198;2023-11-19T13:37:36;61.28;;;8.43;;
38853;SDS011;24606;51.992;4.198;2023-11-19T13:42:38;46.15;;;6.93;;
38853;SDS011;24606;51.992;4.198;2023-11-19T13:47:41;37.65;;;5.93;;
38853;SDS011;24606;51.992;4.198;2023-11-19T13:52:45;58.53;;;7.15;;
38853;SDS011;24606;51.992;4.198;2023-11-19T13:57:47;49.95;;;8.07;;
38853;SDS011;24606;51.992;4.198;2023-11-19T14:02:49;52.40;;;8.55;;
38853;SDS011;24606;51.992;4.198;2023-11-19T14:07:53;55.33;;;8.82;;
38853;SDS011;24606;51.992;4.198;2023-11-19T14:12:56;46.65;;;6.90;;
38853;SDS011;24606;51.992;4.198;2023-11-19T14:17:58;47.83;;;6.38;;
38853;SDS011;24606;51.992;4.198;2023-11-19T14:23:01;48.70;;;6.80;;
38853;SDS011;24606;51.992;4.198;2023-11-19T14:28:03;44.85;;;5.82;;
38853;SDS011;24606;51.992;4.198;2023-11-19T14:33:05;52.95;;;8.20;;
38853;SDS011;24606;51.992;4.198;2023-11-19T14:38:08;45.13;;;7.40;;
38853;SDS011;24606;51.992;4.198;2023-11-19T14:43:10;53.35;;;8.23;;
38853;SDS011;24606;51.992;4.198;2023-11-19T14:48:12;41.17;;;7.75;;
38853;SDS011;24606;51.992;4.198;2023-11-19T14:53:15;76.00;;;9.63;;
38853;SDS011;24606;51.992;4.198;2023-11-19T14:58:18;46.88;;;6.15;;
38853;SDS011;24606;51.992;4.198;2023-11-19T15:03:20;43.33;;;7.28;;
38853;SDS011;24606;51.992;4.198;2023-11-19T15:08:23;55.07;;;6.43;;
38853;SDS011;24606;51.992;4.198;2023-11-19T15:13:25;43.78;;;6.10;;
38853;SDS011;24606;51.992;4.198;2023-11-19T15:18:27;60.53;;;9.95;;
38853;SDS011;24606;51.992;4.198;2023-11-19T15:23:30;57.65;;;8.25;;
38853;SDS011;24606;51.992;4.198;2023-11-19T15:28:32;56.20;;;8.75;;
38853;SDS011;24606;51.992;4.198;2023-11-19T15:33:34;50.65;;;7.45;;
38853;SDS011;24606;51.992;4.198;2023-11-19T15:38:37;59.10;;;7.40;;
38853;SDS011;24606;51.992;4.198;2023-11-19T15:43:39;44.92;;;5.90;;
38853;SDS011;24606;51.992;4.198;2023-11-19T15:48:41;60.40;;;8.15;;
38853;SDS011;24606;51.992;4.198;2023-11-19T15:53:44;62.63;;;7.90;;
38853;SDS011;24606;51.992;4.198;2023-11-19T15:58:46;67.28;;;8.52;;
38853;SDS011;24606;51.992;4.198;2023-11-19T16:03:49;28.83;;;4.32;;
38853;SDS011;24606;51.992;4.198;2023-11-19T16:08:53;64.60;;;9.20;;
38853;SDS011;24606;51.992;4.198;2023-11-19T16:13:56;47.00;;;7.85;;
38853;SDS011;24606;51.992;4.198;2023-11-19T16:18:57;62.72;;;8.45;;
38853;SDS011;24606;51.992;4.198;2023-11-19T16:24:01;69.17;;;9.87;;
38853;SDS011;24606;51.992;4.198;2023-11-19T16:29:04;50.33;;;9.50;;
38853;SDS011;24606;51.992;4.198;2023-11-19T16:34:06;47.15;;;7.80;;
38853;SDS011;24606;51.992;4.198;2023-11-19T16:39:09;52.97;;;7.07;;
38853;SDS011;24606;51.992;4.198;2023-11-19T16:44:13;74.50;;;9.50;;
38853;SDS011;24606;51.992;4.198;2023-11-19T16:49:15;95.85;;;12.27;;
38853;SDS011;24606;51.992;4.198;2023-11-19T16:54:18;81.03;;;11.57;;
38853;SDS011;24606;51.992;4.198;2023-11-19T16:59:20;80.30;;;12.77;;
38853;SDS011;24606;51.992;4.198;2023-11-19T17:04:22;81.53;;;11.30;;
38853;SDS011;24606;51.992;4.198;2023-11-19T17:09:26;75.38;;;10.32;;
38853;SDS011;24606;51.992;4.198;2023-11-19T17:14:28;73.22;;;9.45;;
38853;SDS011;24606;51.992;4.198;2023-11-19T17:19:30;54.05;;;6.85;;
38853;SDS011;24606;51.992;4.198;2023-11-19T17:24:33;71.60;;;9.80;;
38853;SDS011;24606;51.992;4.198;2023-11-19T17:29:35;84.40;;;11.45;;
38853;SDS011;24606;51.992;4.198;2023-11-19T17:34:37;58.22;;;7.10;;
38853;SDS011;24606;51.992;4.198;2023-11-19T17:39:41;63.85;;;9.13;;
38853;SDS011;24606;51.992;4.198;2023-11-19T17:44:43;47.17;;;7.70;;
38853;SDS011;24606;51.992;4.198;2023-11-19T17:49:44;58.67;;;9.43;;
38853;SDS011;24606;51.992;4.198;2023-11-19T17:54:48;59.55;;;7.40;;
38853;SDS011;24606;51.992;4.198;2023-11-19T17:59:50;75.25;;;9.60;;
38853;SDS011;24606;51.992;4.198;2023-11-19T18:04:52;60.08;;;7.78;;
38853;SDS011;24606;51.992;4.198;2023-11-19T18:09:56;42.88;;;6.93;;
38853;SDS011;24606;51.992;4.198;2023-11-19T18:14:58;60.15;;;8.63;;
38853;SDS011;24606;51.992;4.198;2023-11-19T18:19:59;57.33;;;9.27;;
38853;SDS011;24606;51.992;4.198;2023-11-19T18:25:03;56.75;;;8.55;;
38853;SDS011;24606;51.992;4.198;2023-11-19T18:30:06;62.00;;;7.40;;
38853;SDS011;24606;51.992;4.198;2023-11-19T18:35:09;60.03;;;7.53;;
38853;SDS011;24606;51.992;4.198;2023-11-19T18:40:13;45.67;;;6.68;;
38853;SDS011;24606;51.992;4.198;2023-11-19T18:45:19;46.25;;;6.72;;
38853;SDS011;24606;51.992;4.198;2023-11-19T18:50:21;47.13;;;6.22;;
38853;SDS011;24606;51.992;4.198;2023-11-19T18:55:25;53.13;;;6.35;;
38853;SDS011;24606;51.992;4.198;2023-11-19T19:00:27;48.53;;;7.68;;
38853;SDS011;24606;51.992;4.198;2023-11-19T19:05:29;52.95;;;8.25;;
38853;SDS011;24606;51.992;4.198;2023-11-19T19:10:32;50.42;;;6.57;;
38853;SDS011;24606;51.992;4.198;2023-11-19T19:15:37;38.47;;;6.40;;
38853;SDS011;24606;51.992;4.198;2023-11-19T19:20:39;50.97;;;5.77;;
38853;SDS011;24606;51.992;4.198;2023-11-19T19:25:42;42.33;;;6.57;;
38853;SDS011;24606;51.992;4.198;2023-11-19T19:30:44;57.47;;;7.72;;
38853;SDS011;24606;51.992;4.198;2023-11-19T19:35:46;42.65;;;5.72;;
38853;SDS011;24606;51.992;4.198;2023-11-19T19:40:49;47.28;;;5.90;;
38853;SDS011;24606;51.992;4.198;2023-11-19T19:45:51;46.47;;;7.53;;
38853;SDS011;24606;51.992;4.198;2023-11-19T19:50:54;38.78;;;4.60;;
38853;SDS011;24606;51.992;4.198;2023-11-19T19:55:57;47.70;;;6.57;;
38853;SDS011;24606;51.992;4.198;2023-11-19T20:00:59;29.92;;;4.90;;
38853;SDS011;24606;51.992;4.198;2023-11-19T20:06:02;53.05;;;6.40;;
38853;SDS011;24606;51.992;4.198;2023-11-19T20:11:06;36.22;;;4.95;;
38853;SDS011;24606;51.992;4.198;2023-11-19T20:16:08;33.22;;;4.65;;
38853;SDS011;24606;51.992;4.198;2023-11-19T20:21:10;44.30;;;5.63;;
38853;SDS011;24606;51.992;4.198;2023-11-19T20:26:13;36.40;;;4.05;;
38853;SDS011;24606;51.992;4.198;2023-11-19T20:31:18;40.10;;;4.43;;
38853;SDS011;24606;51.992;4.198;2023-11-19T20:36:20;32.22;;;3.65;;
38853;SDS011;24606;51.992;4.198;2023-11-19T20:41:23;28.23;;;5.25;;
38853;SDS011;24606;51.992;4.198;2023-11-19T20:46:27;35.60;;;5.25;;
38853;SDS011;24606;51.992;4.198;2023-11-19T20:51:29;41.38;;;6.07;;
38853;SDS011;24606;51.992;4.198;2023-11-19T21:01:35;20.67;;;3.85;;
38853;SDS011;24606;51.992;4.198;2023-11-19T21:06:37;18.70;;;4.20;;
38853;SDS011;24606;51.992;4.198;2023-11-19T21:11:41;27.77;;;3.88;;
38853;SDS011;24606;51.992;4.198;2023-11-19T21:16:43;18.25;;;3.28;;
38853;SDS011;24606;51.992;4.198;2023-11-19T21:21:45;20.63;;;3.17;;
38853;SDS011;24606;51.992;4.198;2023-11-19T21:26:48;22.38;;;3.00;;
38853;SDS011;24606;51.992;4.198;2023-11-19T21:31:50;30.63;;;3.67;;
38853;SDS011;24606;51.992;4.198;2023-11-19T21:36:52;22.90;;;3.95;;
38853;SDS011;24606;51.992;4.198;2023-11-19T21:41:56;20.38;;;3.83;;
38853;SDS011;24606;51.992;4.198;2023-11-19T21:46:58;16.90;;;3.75;;
38853;SDS011;24606;51.992;4.198;2023-11-19T21:51:59;33.47;;;4.25;;
38853;SDS011;24606;51.992;4.198;2023-11-19T21:57:02;23.83;;;4.10;;
38853;SDS011;24606;51.992;4.198;2023-11-19T22:02:05;21.05;;;2.92;;
38853;SDS011;24606;51.992;4.198;2023-11-19T22:07:07;20.13;;;3.03;;
38853;SDS011;24606;51.992;4.198;2023-11-19T22:12:10;19.08;;;3.30;;
38853;SDS011;24606;51.992;4.198;2023-11-19T22:17:12;21.90;;;4.93;;
38853;SDS011;24606;51.992;4.198;2023-11-19T22:22:15;18.40;;;3.13;;
38853;SDS011;24606;51.992;4.198;2023-11-19T22:27:18;27.15;;;3.83;;
38853;SDS011;24606;51.992;4.198;2023-11-19T22:32:20;27.70;;;3.50;;
38853;SDS011;24606;51.992;4.198;2023-11-19T22:37:22;30.98;;;4.43;;
38853;SDS011;24606;51.992;4.198;2023-11-19T22:42:25;22.27;;;3.63;;
38853;SDS011;24606;51.992;4.198;2023-11-19T22:47:26;23.13;;;4.63;;
38853;SDS011;24606;51.992;4.198;2023-11-19T22:52:29;31.02;;;3.53;;
38853;SDS011;24606;51.992;4.198;2023-11-19T22:57:32;22.73;;;3.20;;
38853;SDS011;24606;51.992;4.198;2023-11-19T23:02:34;28.92;;;3.30;;
38853;SDS011;24606;51.992;4.198;2023-11-19T23:07:36;23.95;;;4.13;;
38853;SDS011;24606;51.992;4.198;2023-11-19T23:12:39;29.00;;;4.78;;
38853;SDS011;24606;51.992;4.198;2023-11-19T23:17:42;32.72;;;4.10;;
38853;SDS011;24606;51.992;4.198;2023-11-19T23:22:44;17.83;;;2.97;;
38853;SDS011;24606;51.992;4.198;2023-11-19T23:27:48;34.42;;;3.55;;
38853;SDS011;24606;51.992;4.198;2023-11-19T23:32:49;26.02;;;4.22;;
38853;SDS011;24606;51.992;4.198;2023-11-19T23:37:52;24.30;;;3.28;;
38853;SDS011;24606;51.992;4.198;2023-11-19T23:42:55;20.00;;;4.20;;
38853;SDS011;24606;51.992;4.198;2023-11-19T23:47:57;35.42;;;4.07;;
38853;SDS011;24606;51.992;4.198;2023-11-19T23:52:58;20.05;;;3.30;;
38853;SDS011;24606;51.992;4.198;2023-11-19T23:58:01;30.23;;;3.60;;
